Time;durP1;ratioP1;P1;durP2;ratioP2;P2;SDS_P1;SDS_P2;PMS_P1;PMS_P2;Temp;Humidity;BMP_temperature;BMP_pressure;BME280_temperature;BME280_humidity;BME280_pressure;Samples;Min_cycle;Max_cycle;Signal;HPM_P1;HPM_P2
2022/03/30 00:00:49;;;;;;;29.90;18.73;;;;;;;15.84;48.54;97774.31;4142817;28;20268;-66
2022/03/30 00:02:51;;;;;;;29.07;18.53;;;;;;;15.75;48.87;97784.63;4149050;28;20241;-66
2022/03/30 00:04:53;;;;;;;29.33;17.77;;;;;;;15.79;49.13;97785.78;4141912;28;20284;-66
2022/03/30 00:06:55;;;;;;;28.87;17.73;;;;;;;15.55;49.58;97802.97;4141451;28;21144;-66
2022/03/30 00:08:56;;;;;;;27.27;17.47;;;;;;;15.02;50.63;97845.03;4137917;28;20234;-66
2022/03/30 00:10:58;;;;;;;29.63;18.33;;;;;;;14.52;52.68;97875.69;4145085;28;20269;-66
2022/03/30 00:13:00;;;;;;;32.67;19.80;;;;;;;14.03;54.50;97891.03;4143937;28;20875;-66
2022/03/30 00:15:02;;;;;;;36.87;19.77;;;;;;;13.79;56.38;97864.19;4143487;28;20268;-66
2022/03/30 00:17:04;;;;;;;30.97;20.40;;;;;;;13.70;56.51;97866.34;4144128;28;20560;-66
2022/03/30 00:19:06;;;;;;;36.07;19.67;;;;;;;14.04;56.24;97837.34;4143966;28;20237;-66
2022/03/30 00:21:08;;;;;;;34.00;19.50;;;;;;;14.09;55.84;97821.44;4143652;28;20264;-66
2022/03/30 00:23:10;;;;;;;30.37;17.97;;;;;;;14.09;56.27;97829.47;4143935;28;20241;-66
2022/03/30 00:25:13;;;;;;;25.40;17.07;;;;;;;14.63;55.05;97775.91;4151493;28;20760;-66
2022/03/30 00:27:15;;;;;;;26.30;16.07;;;;;;;14.68;54.74;97777.88;4143355;28;20290;-66
2022/03/30 00:29:17;;;;;;;29.07;17.30;;;;;;;14.44;55.46;97791.25;4144020;28;20252;-66
2022/03/30 00:31:19;;;;;;;34.13;15.63;;;;;;;14.36;55.23;97804.16;4150090;28;20236;-66
2022/03/30 00:33:21;;;;;;;31.57;16.50;;;;;;;13.96;55.85;97821.63;4143875;28;20272;-66
2022/03/30 00:35:23;;;;;;;31.33;18.23;;;;;;;14.07;56.81;97804.00;4143895;28;20241;-66
2022/03/30 00:37:25;;;;;;;25.43;16.03;;;;;;;14.45;55.80;97768.81;4144015;28;20283;-66
2022/03/30 00:39:27;;;;;;;30.90;16.13;;;;;;;14.26;56.08;97786.84;4143960;28;20261;-66
2022/03/30 00:41:28;;;;;;;27.87;16.63;;;;;;;14.56;55.51;97761.84;4143154;28;20256;-67
2022/03/30 00:43:30;;;;;;;22.17;14.83;;;;;;;15.16;53.96;97704.50;4150399;28;20260;-66
2022/03/30 00:45:32;;;;;;;23.83;14.53;;;;;;;14.84;53.70;97726.34;4147119;28;20261;-66
2022/03/30 00:47:34;;;;;;;23.87;15.00;;;;;;;14.91;53.84;97726.22;4142070;28;20267;-66
2022/03/30 00:49:36;;;;;;;19.70;14.03;;;;;;;14.92;53.93;97727.88;4150853;28;20977;-66
2022/03/30 00:51:37;;;;;;;22.70;15.20;;;;;;;14.90;54.12;97729.97;4149469;28;20260;-66
2022/03/30 00:53:39;;;;;;;22.27;13.80;;;;;;;14.96;54.11;97720.97;4155477;28;20862;-66
2022/03/30 00:55:41;;;;;;;24.50;15.00;;;;;;;14.85;53.81;97730.66;4145964;28;20316;-66
2022/03/30 00:57:45;;;;;;;21.53;13.70;;;;;;;14.79;54.34;97730.81;4143420;28;20237;-66
2022/03/30 00:59:48;;;;;;;24.03;15.60;;;;;;;14.97;54.83;97722.59;4143206;28;20237;-66
2022/03/30 01:01:49;;;;;;;28.83;15.70;;;;;;;15.04;54.55;97719.81;4143132;28;20253;-66
2022/03/30 01:03:51;;;;;;;23.03;15.17;;;;;;;14.89;55.64;97739.03;4143070;28;20820;-66
2022/03/30 01:05:53;;;;;;;24.57;15.67;;;;;;;13.30;60.23;97824.13;4144309;28;20264;-66
2022/03/30 01:07:58;;;;;;;24.73;14.53;;;;;;;13.51;59.31;97793.44;4150804;28;20343;-66
2022/03/30 01:09:59;;;;;;;23.87;14.97;;;;;;;13.74;58.87;97766.03;4146752;28;20295;-66
2022/03/30 01:12:02;;;;;;;22.70;13.97;;;;;;;13.77;58.43;97746.06;4143471;28;20244;-67
2022/03/30 01:14:04;;;;;;;25.63;13.67;;;;;;;13.43;59.30;97764.41;4142091;28;20325;-66
2022/03/30 01:16:06;;;;;;;24.07;13.80;;;;;;;13.50;59.47;97757.13;4143198;28;20788;-67
2022/03/30 01:18:08;;;;;;;24.37;14.03;;;;;;;12.60;61.79;97808.41;4135399;28;20915;-67
2022/03/30 01:20:11;;;;;;;25.03;13.90;;;;;;;13.84;59.54;97714.75;4142431;28;20798;-67
2022/03/30 01:22:13;;;;;;;27.50;17.27;;;;;;;11.65;65.87;97793.34;4142974;28;20316;-65
2022/03/30 01:24:15;;;;;;;26.50;16.47;;;;;;;12.15;64.81;97777.47;4142105;28;20241;-67
2022/03/30 01:26:17;;;;;;;27.07;17.17;;;;;;;11.72;65.27;97799.44;4142477;28;20995;-67
2022/03/30 01:28:19;;;;;;;23.00;17.03;;;;;;;12.04;64.08;97747.00;4143145;28;20726;-65
2022/03/30 01:32:41;;;;;;;32.07;18.93;;;;;;;12.22;63.63;97740.91;4142593;28;20264;-65
2022/03/30 01:34:43;;;;;;;31.43;18.67;;;;;;;12.86;62.12;97708.66;4145096;28;20225;-65
2022/03/30 01:36:45;;;;;;;27.77;18.50;;;;;;;13.08;61.38;97684.19;4143562;28;20304;-65
2022/03/30 01:38:47;;;;;;;29.67;19.00;;;;;;;12.54;64.00;97684.84;4146637;28;20265;-65
2022/03/30 01:40:48;;;;;;;30.77;18.40;;;;;;;12.07;65.01;97711.13;4145175;28;20274;-65
2022/03/30 01:42:50;;;;;;;30.70;19.23;;;;;;;11.64;65.64;97765.88;4152055;28;20252;-65
2022/03/30 01:44:53;;;;;;;31.90;20.63;;;;;;;11.39;67.75;97757.03;4150660;28;20664;-65
2022/03/30 01:46:54;;;;;;;27.77;19.03;;;;;;;13.27;61.98;97648.41;4158489;28;20673;-65
2022/03/30 01:48:56;;;;;;;28.90;19.67;;;;;;;13.33;61.23;97668.03;4151976;28;20241;-65
2022/03/30 01:50:59;;;;;;;31.10;20.20;;;;;;;13.93;59.96;97621.72;4142584;28;20264;-65
2022/03/30 01:53:01;;;;;;;31.23;20.00;;;;;;;13.48;60.45;97662.28;4141676;28;20272;-65
2022/03/30 01:55:03;;;;;;;32.07;22.27;;;;;;;13.13;59.97;97665.66;4142331;28;20261;-65
2022/03/30 01:57:06;;;;;;;29.23;19.70;;;;;;;12.80;61.09;97702.34;4142380;28;20233;-65
2022/03/30 01:59:08;;;;;;;32.63;21.43;;;;;;;11.45;65.28;97762.31;4134068;28;20241;-65
2022/03/30 02:01:10;;;;;;;31.00;20.93;;;;;;;11.55;65.14;97740.56;4146362;28;20261;-65
2022/03/30 02:03:12;;;;;;;33.67;21.70;;;;;;;12.81;62.40;97650.66;4150437;28;20870;-65
2022/03/30 02:05:16;;;;;;;30.93;20.93;;;;;;;13.54;60.32;97608.78;4142168;28;20240;-65
2022/03/30 02:07:20;;;;;;;35.20;21.67;;;;;;;13.63;59.17;97621.78;4141921;28;20264;-64
2022/03/30 02:09:22;;;;;;;36.07;20.60;;;;;;;14.35;57.01;97567.28;4142482;28;20241;-64
2022/03/30 02:11:24;;;;;;;29.00;20.33;;;;;;;14.19;56.62;97566.97;4142297;28;20324;-65
2022/03/30 02:13:27;;;;;;;33.43;21.10;;;;;;;12.01;62.49;97722.66;4141473;28;20254;-65
2022/03/30 02:15:29;;;;;;;37.47;22.37;;;;;;;12.23;63.25;97672.44;4142006;28;20809;-64
2022/03/30 02:17:32;;;;;;;29.80;20.77;;;;;;;12.28;63.79;97683.25;4142346;28;20846;-66
2022/03/30 02:19:33;;;;;;;34.43;21.53;;;;;;;11.57;65.18;97743.03;4141558;28;20260;-66
2022/03/30 02:21:35;;;;;;;34.67;20.43;;;;;;;11.74;64.16;97709.50;4142330;28;20264;-66
2022/03/30 02:23:37;;;;;;;35.57;21.57;;;;;;;11.68;62.56;97718.38;4141777;28;20249;-66
2022/03/30 02:25:39;;;;;;;34.57;20.80;;;;;;;13.43;59.08;97601.56;4139992;28;20237;-66
2022/03/30 02:27:40;;;;;;;31.57;20.40;;;;;;;13.97;57.92;97566.75;4141931;28;20268;-65
2022/03/30 02:29:42;;;;;;;32.10;20.23;;;;;;;14.10;57.35;97571.03;4142094;28;20344;-66
2022/03/30 02:31:50;;;;;;;33.17;19.60;;;;;;;14.44;56.01;97577.34;4141873;28;20245;-66
2022/03/30 02:33:52;;;;;;;31.00;20.23;;;;;;;14.54;55.93;97567.91;4141285;28;20701;-66
2022/03/30 02:35:54;;;;;;;33.33;20.77;;;;;;;13.10;59.04;97680.28;4141791;28;20271;-66
2022/03/30 02:37:57;;;;;;;33.57;21.43;;;;;;;13.81;56.91;97621.69;4141559;28;20332;-66
2022/03/30 02:39:59;;;;;;;31.57;20.13;;;;;;;14.73;54.67;97571.19;4140442;28;20257;-66
2022/03/30 02:42:01;;;;;;;30.70;19.37;;;;;;;12.16;60.79;97746.28;4148050;28;20319;-66
2022/03/30 02:44:03;;;;;;;27.97;19.17;;;;;;;12.65;59.26;97701.94;4145514;28;20260;-66
2022/03/30 02:46:05;;;;;;;28.87;19.80;;;;;;;13.22;58.77;97673.13;4142319;28;20349;-66
2022/03/30 02:48:19;;;;;;;35.60;21.07;;;;;;;14.02;57.01;97606.13;4146437;28;20274;-66
2022/03/30 02:50:20;;;;;;;33.43;20.23;;;;;;;13.92;57.30;97610.22;4143955;28;20241;-66
2022/03/30 02:52:22;;;;;;;28.97;20.13;;;;;;;13.89;57.40;97612.56;4141101;28;20312;-66
2022/03/30 02:54:24;;;;;;;28.87;20.33;;;;;;;14.60;54.98;97578.47;4140997;28;20324;-66
2022/03/30 02:56:25;;;;;;;34.37;20.70;;;;;;;14.16;56.02;97620.91;4141542;28;20268;-66
2022/03/30 02:58:28;;;;;;;33.80;22.07;;;;;;;13.38;57.92;97678.84;4141273;28;20272;-66
2022/03/30 03:00:30;;;;;;;30.43;20.33;;;;;;;13.59;58.68;97669.50;4141936;28;20249;-66
2022/03/30 03:02:34;;;;;;;35.30;21.03;;;;;;;14.11;56.29;97623.47;4141594;28;20268;-66
2022/03/30 03:04:36;;;;;;;35.23;21.87;;;;;;;14.81;54.21;97581.56;4140944;28;20716;-66
2022/03/30 03:06:37;;;;;;;31.87;21.30;;;;;;;13.74;57.96;97658.38;4141727;28;20256;-66
2022/03/30 03:08:39;;;;;;;29.27;20.23;;;;;;;13.54;57.80;97677.38;4141913;28;20260;-66
2022/03/30 03:10:43;;;;;;;34.63;21.20;;;;;;;13.04;58.04;97715.84;4140869;28;20275;-66
2022/03/30 03:12:45;;;;;;;33.57;18.97;;;;;;;13.85;56.97;97648.78;4140990;28;20260;-66
2022/03/30 03:14:46;;;;;;;30.03;18.77;;;;;;;13.48;57.21;97673.75;4140421;28;20229;-66
2022/03/30 03:16:49;;;;;;;38.37;20.17;;;;;;;14.11;56.44;97644.84;4141646;28;20683;-66
2022/03/30 03:18:50;;;;;;;28.93;18.13;;;;;;;13.42;57.52;97685.38;4141357;28;20245;-66
2022/03/30 03:20:52;;;;;;;31.77;18.10;;;;;;;13.34;57.74;97691.84;4141490;28;20320;-66
2022/03/30 03:22:55;;;;;;;28.50;18.13;;;;;;;13.71;57.36;97670.31;4141654;28;20268;-65
2022/03/30 03:24:57;;;;;;;32.40;18.97;;;;;;;13.86;57.18;97669.91;4144603;28;20262;-66
2022/03/30 03:26:59;;;;;;;28.30;19.47;;;;;;;14.10;56.19;97660.03;4145357;28;20279;-66
2022/03/30 03:29:02;;;;;;;31.90;20.17;;;;;;;13.61;57.56;97691.44;4142028;28;20263;-66
2022/03/30 03:31:04;;;;;;;31.70;20.03;;;;;;;14.28;56.17;97629.69;4140893;28;20272;-66
2022/03/30 03:33:08;;;;;;;30.20;18.83;;;;;;;13.77;57.64;97660.59;4141510;28;20241;-65
2022/03/30 03:35:10;;;;;;;33.97;19.90;;;;;;;13.48;58.54;97708.47;4141685;28;20264;-68
2022/03/30 03:37:12;;;;;;;33.03;19.83;;;;;;;13.42;58.80;97697.91;4140672;28;20647;-68
2022/03/30 03:39:13;;;;;;;34.70;19.77;;;;;;;13.46;59.00;97701.75;4141141;28;20237;-69
2022/03/30 03:41:15;;;;;;;32.97;19.87;;;;;;;11.50;62.72;97769.66;4140986;28;20265;-68
2022/03/30 03:43:17;;;;;;;37.13;21.80;;;;;;;12.37;62.26;97742.41;4140170;28;20232;-68
2022/03/30 03:45:19;;;;;;;33.63;21.97;;;;;;;12.52;62.63;97708.22;4142621;28;20316;-69
2022/03/30 03:47:21;;;;;;;34.30;23.03;;;;;;;13.26;60.33;97667.31;4141543;28;20244;-67
2022/03/30 03:49:22;;;;;;;34.33;22.80;;;;;;;13.29;60.32;97661.53;4143884;28;20312;-68
2022/03/30 03:51:24;;;;;;;36.17;23.20;;;;;;;13.07;61.12;97694.06;4144050;28;20229;-68
2022/03/30 03:53:26;;;;;;;36.47;22.00;;;;;;;12.64;62.14;97711.78;4143902;28;20308;-68
2022/03/30 03:55:28;;;;;;;35.57;22.20;;;;;;;13.04;61.22;97675.81;4143675;28;20256;-69
2022/03/30 03:57:32;;;;;;;35.73;22.80;;;;;;;12.77;62.82;97708.13;4143335;28;20259;-65
2022/03/30 03:59:34;;;;;;;36.40;22.40;;;;;;;12.69;61.92;97696.97;4144478;28;20303;-65
2022/03/30 04:01:35;;;;;;;37.20;22.37;;;;;;;13.27;61.51;97651.09;4144082;28;20295;-65
2022/03/30 04:03:37;;;;;;;42.30;22.70;;;;;;;12.78;62.88;97695.63;4143417;28;20233;-65
2022/03/30 04:05:40;;;;;;;33.50;21.33;;;;;;;12.37;63.91;97715.75;4144478;28;20237;-65
2022/03/30 04:07:41;;;;;;;35.23;22.30;;;;;;;13.45;60.71;97633.38;4145357;28;20244;-65
2022/03/30 04:09:43;;;;;;;33.23;21.03;;;;;;;13.40;60.60;97632.22;4144221;28;20233;-66
2022/03/30 04:11:49;;;;;;;34.17;21.10;;;;;;;12.83;63.11;97691.25;4144157;28;20245;-65
2022/03/30 04:13:50;;;;;;;31.13;19.63;;;;;;;13.00;62.34;97682.66;4145016;28;20312;-65
2022/03/30 04:15:52;;;;;;;31.47;20.43;;;;;;;12.82;63.67;97694.94;4146620;28;20240;-65
2022/03/30 04:17:57;;;;;;;32.83;20.23;;;;;;;12.00;64.80;97703.19;4143893;28;20233;-65
2022/03/30 04:20:00;;;;;;;34.90;20.47;;;;;;;12.37;65.14;97705.09;4144388;28;20264;-65
2022/03/30 04:22:02;;;;;;;34.17;18.73;;;;;;;12.78;63.98;97675.09;4143603;28;20263;-65
2022/03/30 04:24:04;;;;;;;31.97;17.97;;;;;;;12.60;64.29;97683.91;4144183;28;20881;-65
2022/03/30 04:26:06;;;;;;;29.07;17.30;;;;;;;13.56;61.56;97630.72;4143911;28;20241;-65
2022/03/30 04:28:07;;;;;;;32.60;17.97;;;;;;;12.61;64.61;97685.56;4135774;28;20325;-65
2022/03/30 04:30:10;;;;;;;31.20;17.03;;;;;;;11.80;67.14;97731.81;4143970;28;20283;-65
2022/03/30 04:32:12;;;;;;;31.30;16.83;;;;;;;13.15;63.52;97632.38;4144129;28;20741;-65
2022/03/30 04:34:14;;;;;;;32.57;18.40;;;;;;;13.20;63.05;97627.16;4143381;28;20241;-65
2022/03/30 04:36:15;;;;;;;28.60;16.33;;;;;;;13.46;62.61;97627.00;4143621;28;20344;-66
2022/03/30 04:38:17;;;;;;;31.20;16.57;;;;;;;13.43;62.70;97609.56;4147516;28;20265;-65
2022/03/30 04:40:18;;;;;;;23.93;15.00;;;;;;;12.16;66.59;97687.69;4143644;28;21069;-65
2022/03/30 04:42:20;;;;;;;26.73;16.43;;;;;;;12.74;64.83;97628.59;4143282;28;20272;-65
2022/03/30 04:44:24;;;;;;;32.47;16.90;;;;;;;12.14;67.81;97690.56;4143189;28;20265;-65
2022/03/30 04:46:26;;;;;;;31.17;16.40;;;;;;;12.35;66.68;97654.69;4143991;28;20233;-65
2022/03/30 04:48:28;;;;;;;27.50;16.90;;;;;;;12.79;65.25;97606.56;4142500;28;20239;-65
2022/03/30 04:50:30;;;;;;;35.57;18.37;;;;;;;12.49;66.32;97652.69;4154777;28;20306;-65
2022/03/30 04:52:32;;;;;;;27.80;16.23;;;;;;;12.10;68.40;97654.75;4150750;28;20604;-65
2022/03/30 04:54:34;;;;;;;27.27;15.43;;;;;;;9.97;74.50;97766.34;4142506;28;20659;-65
2022/03/30 04:56:35;;;;;;;26.40;16.30;;;;;;;11.29;71.86;97653.72;4145068;28;20233;-65
2022/03/30 04:58:37;;;;;;;27.10;16.67;;;;;;;10.06;74.74;97732.47;4147507;28;20316;-65
2022/03/30 05:00:40;;;;;;;32.03;16.63;;;;;;;10.15;74.17;97720.59;4143012;28;20253;-65
2022/03/30 05:02:43;;;;;;;25.10;16.30;;;;;;;10.66;72.62;97708.41;4143432;28;20236;-65
2022/03/30 05:04:45;;;;;;;29.07;16.43;;;;;;;9.68;77.19;97748.97;4142377;28;20241;-65
2022/03/30 05:06:46;;;;;;;31.43;16.70;;;;;;;10.81;73.34;97644.41;4148043;28;20279;-65
2022/03/30 05:08:48;;;;;;;27.73;16.30;;;;;;;11.96;68.75;97568.81;4151385;28;20275;-65
2022/03/30 05:10:50;;;;;;;35.93;17.73;;;;;;;11.78;69.55;97576.75;4144381;28;20717;-65
2022/03/30 05:12:54;;;;;;;35.80;16.60;;;;;;;10.30;73.62;97691.16;4146482;28;20264;-65
2022/03/30 05:14:55;;;;;;;30.13;17.50;;;;;;;10.32;74.37;97690.94;4143318;28;20835;-65
2022/03/30 05:16:57;;;;;;;28.77;16.63;;;;;;;10.46;74.00;97700.50;4142976;28;20261;-65
2022/03/30 05:18:59;;;;;;;32.67;17.57;;;;;;;9.31;78.25;97709.47;4142665;28;20619;-66
2022/03/30 05:21:00;;;;;;;30.80;18.13;;;;;;;9.58;78.06;97696.25;4142131;28;20312;-66
2022/03/30 05:23:03;;;;;;;32.27;17.90;;;;;;;9.22;80.66;97688.66;4146250;28;20248;-65
2022/03/30 05:25:05;;;;;;;32.47;18.07;;;;;;;9.65;77.83;97667.91;4149141;28;20858;-65
2022/03/30 05:27:09;;;;;;;34.03;18.57;;;;;;;9.92;78.61;97630.75;4147287;28;20327;-65
2022/03/30 05:29:11;;;;;;;31.37;18.60;;;;;;;10.34;76.56;97615.31;4142654;28;20269;-65
2022/03/30 05:31:12;;;;;;;33.60;18.60;;;;;;;8.95;81.58;97704.50;4142751;28;20331;-65
2022/03/30 05:33:14;;;;;;;33.30;19.40;;;;;;;9.49;80.02;97647.09;4142320;28;20794;-65
2022/03/30 05:35:16;;;;;;;31.40;19.70;;;;;;;9.27;80.51;97662.38;4142621;28;20240;-65
2022/03/30 05:37:18;;;;;;;37.20;20.50;;;;;;;10.28;75.12;97610.88;4142906;28;20595;-65
2022/03/30 05:39:20;;;;;;;31.33;19.57;;;;;;;11.06;73.14;97553.25;4142000;28;20243;-65
2022/03/30 05:41:21;;;;;;;32.03;20.33;;;;;;;9.50;79.05;97677.88;4143319;28;20973;-65
2022/03/30 05:43:25;;;;;;;39.60;21.00;;;;;;;11.13;73.83;97551.34;4148985;28;20342;-65
2022/03/30 05:45:26;;;;;;;35.50;20.23;;;;;;;9.77;77.86;97657.50;4150021;28;20271;-65
2022/03/30 05:47:28;;;;;;;29.80;19.43;;;;;;;10.87;74.69;97578.91;4153553;28;20237;-65
2022/03/30 05:49:30;;;;;;;31.23;20.60;;;;;;;9.49;78.86;97686.88;4146120;28;20252;-66
2022/03/30 05:51:32;;;;;;;35.80;19.60;;;;;;;9.85;77.39;97653.84;4142046;28;20284;-65
2022/03/30 05:53:34;;;;;;;32.70;19.37;;;;;;;9.83;78.07;97646.06;4142423;28;20715;-66
2022/03/30 05:55:36;;;;;;;29.63;18.23;;;;;;;10.60;76.12;97585.19;4142192;28;20236;-65
2022/03/30 05:57:37;;;;;;;33.83;19.90;;;;;;;10.67;74.13;97595.78;4142311;28;20309;-65
2022/03/30 05:59:41;;;;;;;35.17;21.13;;;;;;;9.81;75.79;97656.09;4142383;28;20268;-65
2022/03/30 06:01:43;;;;;;;28.60;19.00;;;;;;;9.58;79.15;97671.56;4149458;28;20374;-65
2022/03/30 06:03:45;;;;;;;29.80;18.80;;;;;;;9.92;77.38;97637.91;4142678;28;20229;-65
2022/03/30 06:05:51;;;;;;;27.73;19.03;;;;;;;11.43;72.53;97556.81;4145155;28;20320;-65
2022/03/30 06:07:57;;;;;;;30.30;19.13;;;;;;;10.95;72.43;97555.56;4141818;28;20240;-66
2022/03/30 06:09:59;;;;;;;29.80;19.30;;;;;;;11.33;70.89;97552.00;4141747;28;20299;-64
2022/03/30 06:12:03;;;;;;;26.80;18.90;;;;;;;10.62;73.32;97616.84;4142577;28;20687;-64
2022/03/30 06:14:05;;;;;;;26.77;17.80;;;;;;;10.69;73.19;97614.97;4142244;28;20808;-65
2022/03/30 06:16:07;;;;;;;35.87;18.07;;;;;;;11.28;73.53;97582.94;4141603;28;20265;-66
2022/03/30 06:18:11;;;;;;;33.37;17.70;;;;;;;10.14;75.35;97652.56;4142401;28;20638;-66
2022/03/30 06:20:13;;;;;;;34.63;18.47;;;;;;;10.93;74.33;97588.69;4142448;28;20319;-66
2022/03/30 06:22:20;;;;;;;33.57;17.93;;;;;;;12.88;66.94;97517.25;4141878;28;20941;-66
2022/03/30 06:24:22;;;;;;;30.13;18.03;;;;;;;11.20;71.01;97599.97;4141852;28;20241;-66
2022/03/30 06:26:25;;;;;;;27.63;18.07;;;;;;;10.04;75.96;97697.31;4142134;28;20328;-66
2022/03/30 06:28:27;;;;;;;30.70;16.47;;;;;;;11.01;72.04;97601.75;4141542;28;20316;-66
2022/03/30 06:30:29;;;;;;;31.07;18.13;;;;;;;11.44;72.64;97576.25;4141809;28;20221;-64
2022/03/30 06:32:31;;;;;;;29.90;17.17;;;;;;;12.62;67.82;97540.56;4141892;28;20229;-65
2022/03/30 06:34:33;;;;;;;27.00;17.43;;;;;;;11.71;70.38;97545.72;4141803;28;20327;-64
2022/03/30 06:36:37;;;;;;;31.77;17.30;;;;;;;12.61;68.04;97546.94;4141973;28;20760;-65
2022/03/30 06:38:41;;;;;;;30.57;17.00;;;;;;;10.56;73.33;97657.56;4142303;28;20249;-65
2022/03/30 06:40:47;;;;;;;27.03;16.57;;;;;;;12.77;67.16;97553.47;4141880;28;20229;-64
2022/03/30 06:42:49;;;;;;;27.83;17.03;;;;;;;10.97;72.24;97645.72;4141869;28;20280;-64
2022/03/30 06:44:51;;;;;;;28.13;16.57;;;;;;;10.42;75.57;97694.00;4142430;28;20867;-65
2022/03/30 06:46:52;;;;;;;28.10;17.57;;;;;;;11.09;73.60;97635.22;4141750;28;20348;-66
2022/03/30 06:48:54;;;;;;;26.07;16.80;;;;;;;11.60;72.06;97599.66;4141342;28;20340;-66
2022/03/30 06:50:57;;;;;;;28.00;16.90;;;;;;;11.53;71.57;97591.75;4141454;28;20323;-65
2022/03/30 06:52:59;;;;;;;29.00;16.50;;;;;;;10.56;74.81;97657.56;4141359;28;20264;-66
2022/03/30 06:55:03;;;;;;;26.43;16.37;;;;;;;12.29;69.60;97557.78;4140754;28;20279;-66
2022/03/30 06:57:06;;;;;;;30.47;16.67;;;;;;;12.60;67.98;97531.97;4141408;28;20401;-66
2022/03/30 06:59:07;;;;;;;24.37;15.80;;;;;;;11.94;70.58;97578.88;4139738;28;20241;-65
2022/03/30 07:01:12;;;;;;;26.77;14.93;;;;;;;13.34;65.55;97509.53;4139696;28;20261;-66
2022/03/30 07:03:14;;;;;;;31.27;14.30;;;;;;;13.28;65.83;97529.13;4141366;28;20837;-65
2022/03/30 07:05:15;;;;;;;27.87;15.73;;;;;;;13.51;64.57;97505.09;4142016;28;20245;-65
2022/03/30 07:11:58;;;;;;;28.10;15.10;;;;;;;12.96;67.19;97566.78;4142141;28;20325;-65
2022/03/30 07:13:59;;;;;;;28.30;13.73;;;;;;;13.24;65.42;97541.31;4143192;28;20864;-63
2022/03/30 07:16:02;;;;;;;23.67;15.63;;;;;;;14.23;62.89;97519.19;4147198;28;20260;-64
2022/03/30 07:18:06;;;;;;;27.13;15.27;;;;;;;13.50;65.27;97518.69;4145773;28;20801;-64
2022/03/30 07:20:10;;;;;;;22.80;15.03;;;;;;;14.57;61.66;97488.00;4144046;28;20271;-64
2022/03/30 07:22:13;;;;;;;25.83;15.73;;;;;;;14.86;60.63;97490.69;4144984;28;20651;-65
2022/03/30 07:24:15;;;;;;;26.17;16.93;;;;;;;14.87;60.27;97466.34;4144864;28;20260;-65
2022/03/30 07:26:17;;;;;;;26.77;17.13;;;;;;;15.04;60.24;97481.63;4144359;28;20267;-65
2022/03/30 07:28:24;;;;;;;25.80;16.70;;;;;;;14.83;60.26;97465.22;4145255;28;20241;-65
2022/03/30 07:30:26;;;;;;;28.87;17.43;;;;;;;15.17;59.76;97469.75;4144763;28;20269;-64
2022/03/30 07:32:28;;;;;;;31.87;19.03;;;;;;;14.68;60.84;97472.94;4143915;28;20241;-66
2022/03/30 07:34:30;;;;;;;32.57;19.90;;;;;;;14.61;61.41;97481.13;4144750;28;20312;-66
2022/03/30 07:36:31;;;;;;;32.87;21.87;;;;;;;13.68;63.65;97523.91;4144943;28;20263;-66
2022/03/30 07:38:33;;;;;;;43.07;22.53;;;;;;;14.24;62.50;97523.47;4144334;28;20229;-66
2022/03/30 07:40:35;;;;;;;38.67;22.53;;;;;;;14.57;61.72;97522.78;4144371;28;20311;-64
2022/03/30 07:42:38;;;;;;;32.83;22.90;;;;;;;13.97;63.36;97534.69;4144766;28;20252;-64
2022/03/30 07:44:39;;;;;;;33.83;20.10;;;;;;;13.86;63.51;97538.22;4148565;28;20959;-64
2022/03/30 07:46:41;;;;;;;39.83;23.40;;;;;;;14.01;63.18;97537.72;4144485;28;20283;-65
2022/03/30 07:48:43;;;;;;;38.33;22.17;;;;;;;14.30;62.46;97533.22;4143953;28;20225;-66
2022/03/30 07:50:45;;;;;;;37.57;23.07;;;;;;;14.36;62.22;97531.47;4144466;28;20728;-66
2022/03/30 07:52:47;;;;;;;34.50;22.77;;;;;;;14.06;62.82;97537.84;4144013;28;20259;-64
2022/03/30 07:54:49;;;;;;;33.27;23.30;;;;;;;13.89;63.32;97535.88;4144653;28;20275;-64
2022/03/30 07:56:51;;;;;;;34.87;24.10;;;;;;;13.77;64.19;97554.56;4144512;28;20278;-63
2022/03/30 07:58:53;;;;;;;35.63;23.43;;;;;;;14.10;63.23;97553.13;4144142;28;20706;-66
2022/03/30 08:00:55;;;;;;;40.43;25.27;;;;;;;13.19;65.86;97580.16;4144388;28;20295;-64
2022/03/30 08:02:58;;;;;;;39.30;26.23;;;;;;;13.18;65.75;97591.91;4144327;28;20723;-66
2022/03/30 08:05:00;;;;;;;39.70;25.27;;;;;;;13.39;64.89;97568.38;4143898;28;20269;-65
2022/03/30 08:07:03;;;;;;;34.70;24.00;;;;;;;13.46;65.05;97577.06;4144695;28;20646;-65
2022/03/30 08:09:04;;;;;;;35.87;24.27;;;;;;;13.85;64.26;97579.31;4145085;28;20332;-66
2022/03/30 08:11:06;;;;;;;37.47;23.60;;;;;;;13.87;63.83;97569.22;4143535;28;20249;-65
2022/03/30 08:13:10;;;;;;;38.87;24.00;;;;;;;13.89;63.68;97567.94;4144222;28;20932;-66
2022/03/30 08:15:13;;;;;;;34.67;25.00;;;;;;;13.65;64.72;97585.81;4151707;28;20279;-65
2022/03/30 08:17:14;;;;;;;37.27;25.17;;;;;;;13.30;65.12;97580.41;4143708;28;20232;-66
2022/03/30 08:19:16;;;;;;;41.80;25.57;;;;;;;13.36;65.47;97606.19;4143969;28;20265;-66
2022/03/30 08:23:38;;;;;;;42.37;25.60;;;;;;;12.90;63.25;97637.03;4142667;28;20256;-66
2022/03/30 08:25:40;;;;;;;39.10;25.20;;;;;;;12.91;62.52;97628.00;4140848;28;20353;-66
2022/03/30 08:27:43;;;;;;;34.10;24.00;;;;;;;12.97;62.10;97641.25;4144811;28;20682;-66
2022/03/30 08:29:45;;;;;;;39.20;25.10;;;;;;;12.34;64.01;97694.91;4148469;28;20252;-66
2022/03/30 08:31:48;;;;;;;39.83;25.30;;;;;;;11.80;65.56;97721.16;4156403;28;20653;-66
2022/03/30 08:33:50;;;;;;;38.80;26.00;;;;;;;12.29;63.60;97671.56;4143046;28;20237;-66
2022/03/30 08:35:53;;;;;;;41.93;25.33;;;;;;;12.11;64.36;97680.34;4143562;28;20802;-65
2022/03/30 08:37:55;;;;;;;43.27;26.87;;;;;;;11.88;65.22;97715.56;4142407;28;20237;-66
2022/03/30 08:39:57;;;;;;;40.53;26.83;;;;;;;11.79;64.57;97706.22;4159353;28;20324;-66
2022/03/30 08:41:59;;;;;;;39.73;26.23;;;;;;;11.84;64.56;97699.22;4160072;28;20268;-65
2022/03/30 08:44:00;;;;;;;40.17;27.70;;;;;;;11.69;65.26;97720.00;4156350;28;20257;-65
2022/03/30 08:46:03;;;;;;;41.57;27.07;;;;;;;10.94;67.17;97749.88;4154571;28;20352;-66
2022/03/30 08:48:05;;;;;;;43.83;28.73;;;;;;;11.01;67.44;97755.19;4149133;28;20240;-65
2022/03/30 08:50:07;;;;;;;42.93;27.03;;;;;;;11.02;66.38;97747.00;4150055;28;20306;-66
2022/03/30 08:52:10;;;;;;;46.23;28.40;;;;;;;11.03;66.64;97756.59;4140162;28;20832;-66
2022/03/30 08:54:14;;;;;;;46.40;29.10;;;;;;;11.57;65.20;97711.88;4142826;28;20271;-66
2022/03/30 08:56:17;;;;;;;42.53;29.03;;;;;;;10.91;67.12;97763.59;4143431;28;20241;-66
2022/03/30 08:58:19;;;;;;;44.80;28.67;;;;;;;11.21;66.12;97723.97;4153940;28;20245;-66
2022/03/30 09:00:21;;;;;;;46.60;30.93;;;;;;;10.84;66.93;97745.00;4149781;28;20264;-66
2022/03/30 09:02:40;;;;;;;46.37;29.97;;;;;;;10.70;67.60;97769.94;4142252;28;20570;-64
2022/03/30 09:04:42;;;;;;;46.07;30.03;;;;;;;10.60;68.07;97775.72;4143583;28;20284;-64
2022/03/30 09:06:57;;;;;;;47.13;30.00;;;;;;;10.10;69.02;97778.81;4143286;28;20233;-64
2022/03/30 09:08:58;;;;;;;48.00;29.97;;;;;;;11.22;66.10;97709.63;4143637;28;20287;-65
2022/03/30 09:11:02;;;;;;;51.33;30.57;;;;;;;11.07;66.16;97725.06;4142886;28;20261;-65
2022/03/30 09:13:06;;;;;;;48.10;31.23;;;;;;;11.30;65.53;97712.03;4142715;28;20257;-65
2022/03/30 09:15:09;;;;;;;48.07;30.47;;;;;;;11.44;65.02;97709.31;4142726;28;20242;-65
2022/03/30 09:17:35;;;;;;;49.43;32.17;;;;;;;11.35;65.42;97719.41;4133483;28;20240;-65
2022/03/30 09:19:39;;;;;;;49.37;32.33;;;;;;;11.64;64.19;97707.31;4142774;28;20261;-65
2022/03/30 09:21:46;;;;;;;50.30;31.50;;;;;;;11.69;64.36;97696.84;4143250;28;20229;-65
2022/03/30 09:23:49;;;;;;;48.00;31.57;;;;;;;11.27;65.17;97712.47;4142668;28;20288;-65
2022/03/30 09:25:51;;;;;;;51.10;32.77;;;;;;;11.34;65.82;97728.41;4143582;28;20241;-65
2022/03/30 09:27:55;;;;;;;52.83;32.03;;;;;;;11.02;66.63;97748.81;4145119;28;20681;-65
2022/03/30 09:29:56;;;;;;;53.27;32.83;;;;;;;11.54;65.28;97717.63;4145600;28;20321;-65
2022/03/30 09:32:08;;;;;;;49.80;32.63;;;;;;;11.65;65.14;97719.63;4143363;28;20519;-66